CheckWX is a tool to help pilots better visualize weather data.  It is not intended as a substitute for an official pre-flight weather briefing.

17:52:52 UTC

FYWB METAR
Walvis Bay Airport
Walvis Bay, Namibia
Current

53 mins ago

FYWB 241700Z 25012KT CAVOK 19/14 Q1014
Observed
Mar-24 @ 17:00 UTC
Wind
  • 250° at 12 KTS
Visibility
10,000+ meters
Flight Rules
VFR
Cloud Levels
  • Clear skies
Temperature
19°C / 66°F
Dewpoint
14°C / 57°F
Humidity
73%
Altimeter
29.94" Hg
Pressure
1013.92 hPa
Previous

2 hours ago

FYWB 241600Z 25012KT CAVOK 21/13 Q1014
Observed
Mar-24 @ 16:00 UTC
Wind
  • 250° at 12 KTS
Visibility
10,000+ meters
Flight Rules
VFR
Cloud Levels
  • Clear skies
Temperature
21°C / 70°F
Dewpoint
13°C / 55°F
Humidity
60%
Altimeter
29.94" Hg
Pressure
1013.92 hPa
Previous

3 hours ago

FYWB 241500Z 25013KT 5000 SA NSC 22/13 Q1014
Observed
Mar-24 @ 15:00 UTC
Wind
  • 250° at 13 KTS
Visibility
5,005 meters
Flight Rules
MVFR
Conditions
Sand
Cloud Levels
  • Clear skies
Temperature
22°C / 72°F
Dewpoint
13°C / 55°F
Humidity
57%
Altimeter
29.94" Hg
Pressure
1013.92 hPa